sensor_id;sensor_type;location;lat;lon;timestamp;P1;durP1;ratioP1;P2;durP2;ratioP2
17524;SDS011;40431;52.198;9.902;2024-03-25T00:01:33;5.00;;;2.83;;
17524;SDS011;40431;52.198;9.902;2024-03-25T00:04:07;2.80;;;2.57;;
17524;SDS011;40431;52.198;9.902;2024-03-25T00:06:34;4.93;;;2.40;;
17524;SDS011;40431;52.198;9.902;2024-03-25T00:09:04;3.53;;;2.40;;
17524;SDS011;40431;52.198;9.902;2024-03-25T00:11:36;3.30;;;2.70;;
17524;SDS011;40431;52.198;9.902;2024-03-25T00:14:14;2.80;;;2.60;;
17524;SDS011;40431;52.198;9.902;2024-03-25T00:16:46;3.20;;;2.70;;
17524;SDS011;40431;52.198;9.902;2024-03-25T00:19:21;3.03;;;2.73;;
17524;SDS011;40431;52.198;9.902;2024-03-25T00:21:48;2.83;;;2.63;;
17524;SDS011;40431;52.198;9.902;2024-03-25T00:24:19;3.27;;;2.83;;
17524;SDS011;40431;52.198;9.902;2024-03-25T00:26:47;3.50;;;2.33;;
17524;SDS011;40431;52.198;9.902;2024-03-25T00:29:17;2.87;;;2.67;;
17524;SDS011;40431;52.198;9.902;2024-03-25T00:31:56;2.90;;;2.27;;
17524;SDS011;40431;52.198;9.902;2024-03-25T00:34:34;3.63;;;2.87;;
17524;SDS011;40431;52.198;9.902;2024-03-25T00:37:14;6.60;;;2.90;;
17524;SDS011;40431;52.198;9.902;2024-03-25T00:39:53;3.10;;;2.90;;
17524;SDS011;40431;52.198;9.902;2024-03-25T00:42:26;2.70;;;2.50;;
17524;SDS011;40431;52.198;9.902;2024-03-25T00:44:55;3.07;;;2.87;;
17524;SDS011;40431;52.198;9.902;2024-03-25T00:47:32;4.70;;;2.93;;
17524;SDS011;40431;52.198;9.902;2024-03-25T00:50:16;3.13;;;2.77;;
17524;SDS011;40431;52.198;9.902;2024-03-25T00:52:52;2.80;;;2.60;;
17524;SDS011;40431;52.198;9.902;2024-03-25T00:55:20;3.40;;;3.07;;
17524;SDS011;40431;52.198;9.902;2024-03-25T00:57:47;3.53;;;3.23;;
17524;SDS011;40431;52.198;9.902;2024-03-25T01:00:19;3.87;;;3.30;;
17524;SDS011;40431;52.198;9.902;2024-03-25T01:02:51;3.57;;;3.30;;
17524;SDS011;40431;52.198;9.902;2024-03-25T01:05:36;4.63;;;3.43;;
17524;SDS011;40431;52.198;9.902;2024-03-25T01:08:10;4.70;;;3.67;;
17524;SDS011;40431;52.198;9.902;2024-03-25T01:10:44;5.07;;;4.50;;
17524;SDS011;40431;52.198;9.902;2024-03-25T01:13:16;4.13;;;3.80;;
17524;SDS011;40431;52.198;9.902;2024-03-25T01:15:44;6.07;;;3.90;;
17524;SDS011;40431;52.198;9.902;2024-03-25T01:18:21;4.53;;;3.60;;
17524;SDS011;40431;52.198;9.902;2024-03-25T01:20:52;4.37;;;3.97;;
17524;SDS011;40431;52.198;9.902;2024-03-25T01:26:26;4.20;;;3.40;;
17524;SDS011;40431;52.198;9.902;2024-03-25T01:29:02;4.93;;;3.60;;
17524;SDS011;40431;52.198;9.902;2024-03-25T01:31:35;6.40;;;3.33;;
17524;SDS011;40431;52.198;9.902;2024-03-25T01:34:11;4.73;;;4.30;;
17524;SDS011;40431;52.198;9.902;2024-03-25T01:36:47;6.53;;;3.70;;
17524;SDS011;40431;52.198;9.902;2024-03-25T01:39:21;5.10;;;3.50;;
17524;SDS011;40431;52.198;9.902;2024-03-25T01:41:50;3.97;;;3.67;;
17524;SDS011;40431;52.198;9.902;2024-03-25T01:44:21;5.70;;;3.80;;
17524;SDS011;40431;52.198;9.902;2024-03-25T01:46:53;6.57;;;3.60;;
17524;SDS011;40431;52.198;9.902;2024-03-25T01:49:25;5.60;;;3.57;;
17524;SDS011;40431;52.198;9.902;2024-03-25T01:52:02;5.13;;;3.73;;
17524;SDS011;40431;52.198;9.902;2024-03-25T01:54:33;6.17;;;3.50;;
17524;SDS011;40431;52.198;9.902;2024-03-25T01:57:00;6.00;;;3.40;;
17524;SDS011;40431;52.198;9.902;2024-03-25T01:59:32;4.30;;;3.90;;
17524;SDS011;40431;52.198;9.902;2024-03-25T02:02:19;4.73;;;3.23;;
17524;SDS011;40431;52.198;9.902;2024-03-25T02:04:53;5.80;;;3.87;;
17524;SDS011;40431;52.198;9.902;2024-03-25T02:07:28;5.33;;;3.60;;
17524;SDS011;40431;52.198;9.902;2024-03-25T02:10:03;4.53;;;3.57;;
17524;SDS011;40431;52.198;9.902;2024-03-25T02:12:30;5.97;;;3.70;;
17524;SDS011;40431;52.198;9.902;2024-03-25T02:14:58;4.10;;;3.23;;
17524;SDS011;40431;52.198;9.902;2024-03-25T02:17:29;6.00;;;3.73;;
17524;SDS011;40431;52.198;9.902;2024-03-25T02:20:06;5.50;;;3.67;;
17524;SDS011;40431;52.198;9.902;2024-03-25T02:22:34;5.73;;;4.20;;
17524;SDS011;40431;52.198;9.902;2024-03-25T02:25:03;6.20;;;3.50;;
17524;SDS011;40431;52.198;9.902;2024-03-25T02:27:35;5.47;;;4.07;;
17524;SDS011;40431;52.198;9.902;2024-03-25T02:30:06;5.73;;;4.07;;
17524;SDS011;40431;52.198;9.902;2024-03-25T02:32:43;4.83;;;3.63;;
17524;SDS011;40431;52.198;9.902;2024-03-25T02:35:17;4.77;;;3.63;;
17524;SDS011;40431;52.198;9.902;2024-03-25T02:37:48;6.10;;;3.73;;
17524;SDS011;40431;52.198;9.902;2024-03-25T02:40:41;6.27;;;4.17;;
17524;SDS011;40431;52.198;9.902;2024-03-25T02:43:19;4.30;;;3.70;;
17524;SDS011;40431;52.198;9.902;2024-03-25T02:45:47;5.77;;;3.60;;
17524;SDS011;40431;52.198;9.902;2024-03-25T02:48:15;5.60;;;3.60;;
17524;SDS011;40431;52.198;9.902;2024-03-25T02:50:49;6.03;;;4.00;;
17524;SDS011;40431;52.198;9.902;2024-03-25T02:53:23;5.53;;;3.80;;
17524;SDS011;40431;52.198;9.902;2024-03-25T02:55:56;4.50;;;3.27;;
17524;SDS011;40431;52.198;9.902;2024-03-25T02:58:30;5.33;;;3.60;;
17524;SDS011;40431;52.198;9.902;2024-03-25T03:00:58;3.60;;;3.30;;
17524;SDS011;40431;52.198;9.902;2024-03-25T03:03:38;5.50;;;3.80;;
17524;SDS011;40431;52.198;9.902;2024-03-25T03:06:18;4.67;;;3.27;;
17524;SDS011;40431;52.198;9.902;2024-03-25T03:09:02;5.23;;;3.80;;
17524;SDS011;40431;52.198;9.902;2024-03-25T03:11:29;5.00;;;3.80;;
17524;SDS011;40431;52.198;9.902;2024-03-25T03:13:58;3.20;;;2.90;;
17524;SDS011;40431;52.198;9.902;2024-03-25T03:16:25;6.20;;;3.53;;
17524;SDS011;40431;52.198;9.902;2024-03-25T03:18:57;3.93;;;3.53;;
17524;SDS011;40431;52.198;9.902;2024-03-25T03:21:24;3.47;;;3.13;;
17524;SDS011;40431;52.198;9.902;2024-03-25T03:23:53;3.93;;;3.60;;
17524;SDS011;40431;52.198;9.902;2024-03-25T03:26:19;6.27;;;3.13;;
17524;SDS011;40431;52.198;9.902;2024-03-25T03:28:52;4.40;;;3.27;;
17524;SDS011;40431;52.198;9.902;2024-03-25T03:31:24;3.77;;;3.47;;
17524;SDS011;40431;52.198;9.902;2024-03-25T03:33:56;3.47;;;3.17;;
17524;SDS011;40431;52.198;9.902;2024-03-25T03:36:22;3.47;;;3.17;;
17524;SDS011;40431;52.198;9.902;2024-03-25T03:38:49;4.73;;;2.80;;
17524;SDS011;40431;52.198;9.902;2024-03-25T03:41:15;3.80;;;3.23;;
17524;SDS011;40431;52.198;9.902;2024-03-25T03:43:42;3.40;;;3.10;;
17524;SDS011;40431;52.198;9.902;2024-03-25T03:46:07;4.17;;;3.70;;
17524;SDS011;40431;52.198;9.902;2024-03-25T03:48:35;3.73;;;3.40;;
17524;SDS011;40431;52.198;9.902;2024-03-25T03:51:02;4.53;;;3.17;;
17524;SDS011;40431;52.198;9.902;2024-03-25T03:53:28;3.33;;;3.03;;
17524;SDS011;40431;52.198;9.902;2024-03-25T03:55:54;5.67;;;3.30;;
17524;SDS011;40431;52.198;9.902;2024-03-25T03:58:24;3.80;;;3.40;;
17524;SDS011;40431;52.198;9.902;2024-03-25T04:00:59;4.47;;;3.50;;
17524;SDS011;40431;52.198;9.902;2024-03-25T04:03:48;3.77;;;2.90;;
17524;SDS011;40431;52.198;9.902;2024-03-25T04:06:21;6.37;;;3.70;;
17524;SDS011;40431;52.198;9.902;2024-03-25T04:09:04;3.87;;;3.10;;
17524;SDS011;40431;52.198;9.902;2024-03-25T04:11:37;4.17;;;3.47;;
17524;SDS011;40431;52.198;9.902;2024-03-25T04:14:16;5.37;;;3.47;;
17524;SDS011;40431;52.198;9.902;2024-03-25T04:17:03;4.27;;;3.20;;
17524;SDS011;40431;52.198;9.902;2024-03-25T04:19:51;5.17;;;3.60;;
17524;SDS011;40431;52.198;9.902;2024-03-25T04:22:43;4.07;;;3.10;;
17524;SDS011;40431;52.198;9.902;2024-03-25T04:25:16;3.60;;;2.80;;
17524;SDS011;40431;52.198;9.902;2024-03-25T04:27:51;5.17;;;3.00;;
17524;SDS011;40431;52.198;9.902;2024-03-25T04:30:42;3.30;;;3.00;;
17524;SDS011;40431;52.198;9.902;2024-03-25T04:33:28;5.70;;;3.43;;
17524;SDS011;40431;52.198;9.902;2024-03-25T04:36:06;5.27;;;3.10;;
17524;SDS011;40431;52.198;9.902;2024-03-25T04:38:54;4.20;;;3.17;;
17524;SDS011;40431;52.198;9.902;2024-03-25T04:41:29;3.50;;;3.17;;
17524;SDS011;40431;52.198;9.902;2024-03-25T04:44:49;5.63;;;3.60;;
17524;SDS011;40431;52.198;9.902;2024-03-25T04:47:02;3.70;;;3.40;;
17524;SDS011;40431;52.198;9.902;2024-03-25T04:49:46;3.37;;;2.80;;
17524;SDS011;40431;52.198;9.902;2024-03-25T04:52:29;3.70;;;3.40;;
17524;SDS011;40431;52.198;9.902;2024-03-25T04:55:10;3.70;;;2.83;;
17524;SDS011;40431;52.198;9.902;2024-03-25T04:57:57;4.80;;;3.90;;
17524;SDS011;40431;52.198;9.902;2024-03-25T05:00:33;5.37;;;3.10;;
17524;SDS011;40431;52.198;9.902;2024-03-25T05:03:04;5.37;;;3.77;;
17524;SDS011;40431;52.198;9.902;2024-03-25T05:05:45;4.80;;;3.73;;
17524;SDS011;40431;52.198;9.902;2024-03-25T05:08:22;4.57;;;3.60;;
17524;SDS011;40431;52.198;9.902;2024-03-25T05:11:04;5.63;;;3.50;;
17524;SDS011;40431;52.198;9.902;2024-03-25T05:13:39;4.37;;;3.20;;
17524;SDS011;40431;52.198;9.902;2024-03-25T05:16:14;10.23;;;3.90;;
17524;SDS011;40431;52.198;9.902;2024-03-25T05:18:46;4.93;;;3.87;;
17524;SDS011;40431;52.198;9.902;2024-03-25T05:21:26;5.67;;;4.20;;
17524;SDS011;40431;52.198;9.902;2024-03-25T05:24:12;6.63;;;4.80;;
17524;SDS011;40431;52.198;9.902;2024-03-25T05:26:46;12.73;;;4.90;;
17524;SDS011;40431;52.198;9.902;2024-03-25T05:29:26;7.60;;;4.63;;
17524;SDS011;40431;52.198;9.902;2024-03-25T05:31:59;11.37;;;5.53;;
17524;SDS011;40431;52.198;9.902;2024-03-25T05:34:44;6.07;;;4.90;;
17524;SDS011;40431;52.198;9.902;2024-03-25T05:37:25;9.90;;;5.03;;
17524;SDS011;40431;52.198;9.902;2024-03-25T05:40:00;8.80;;;5.20;;
17524;SDS011;40431;52.198;9.902;2024-03-25T05:42:44;8.80;;;5.97;;
17524;SDS011;40431;52.198;9.902;2024-03-25T05:45:32;10.50;;;5.80;;
17524;SDS011;40431;52.198;9.902;2024-03-25T05:48:04;10.67;;;6.33;;
17524;SDS011;40431;52.198;9.902;2024-03-25T05:50:30;17.77;;;6.27;;
17524;SDS011;40431;52.198;9.902;2024-03-25T05:52:55;8.97;;;5.70;;
17524;SDS011;40431;52.198;9.902;2024-03-25T05:55:22;10.87;;;5.43;;
17524;SDS011;40431;52.198;9.902;2024-03-25T05:57:48;8.90;;;5.30;;
17524;SDS011;40431;52.198;9.902;2024-03-25T06:00:14;11.63;;;5.60;;
17524;SDS011;40431;52.198;9.902;2024-03-25T06:02:40;11.83;;;5.70;;
17524;SDS011;40431;52.198;9.902;2024-03-25T06:05:05;8.97;;;5.43;;
17524;SDS011;40431;52.198;9.902;2024-03-25T06:07:31;14.23;;;5.53;;
17524;SDS011;40431;52.198;9.902;2024-03-25T06:09:57;10.17;;;4.57;;
17524;SDS011;40431;52.198;9.902;2024-03-25T06:12:24;11.83;;;5.37;;
17524;SDS011;40431;52.198;9.902;2024-03-25T06:14:49;10.13;;;5.50;;
17524;SDS011;40431;52.198;9.902;2024-03-25T06:17:15;10.57;;;4.90;;
17524;SDS011;40431;52.198;9.902;2024-03-25T06:19:40;11.07;;;4.70;;
17524;SDS011;40431;52.198;9.902;2024-03-25T06:22:07;12.00;;;5.03;;
17524;SDS011;40431;52.198;9.902;2024-03-25T06:24:40;10.37;;;4.77;;
17524;SDS011;40431;52.198;9.902;2024-03-25T06:27:11;5.97;;;4.30;;
17524;SDS011;40431;52.198;9.902;2024-03-25T06:29:51;9.93;;;4.73;;
17524;SDS011;40431;52.198;9.902;2024-03-25T06:32:25;8.90;;;4.60;;
17524;SDS011;40431;52.198;9.902;2024-03-25T06:35:18;7.53;;;4.93;;
17524;SDS011;40431;52.198;9.902;2024-03-25T06:38:02;9.97;;;4.67;;
17524;SDS011;40431;52.198;9.902;2024-03-25T06:40:40;8.97;;;4.43;;
17524;SDS011;40431;52.198;9.902;2024-03-25T06:43:11;6.60;;;4.63;;
17524;SDS011;40431;52.198;9.902;2024-03-25T06:45:58;9.17;;;4.57;;
17524;SDS011;40431;52.198;9.902;2024-03-25T06:48:31;10.27;;;4.97;;
17524;SDS011;40431;52.198;9.902;2024-03-25T06:51:08;10.47;;;4.87;;
17524;SDS011;40431;52.198;9.902;2024-03-25T06:53:40;9.57;;;4.47;;
17524;SDS011;40431;52.198;9.902;2024-03-25T06:56:21;9.73;;;5.47;;
17524;SDS011;40431;52.198;9.902;2024-03-25T06:58:56;9.43;;;4.93;;
17524;SDS011;40431;52.198;9.902;2024-03-25T07:01:40;8.07;;;4.70;;
17524;SDS011;40431;52.198;9.902;2024-03-25T07:04:23;5.97;;;4.57;;
17524;SDS011;40431;52.198;9.902;2024-03-25T07:06:55;11.30;;;5.20;;
17524;SDS011;40431;52.198;9.902;2024-03-25T07:09:32;12.77;;;5.63;;
17524;SDS011;40431;52.198;9.902;2024-03-25T07:12:05;14.67;;;6.70;;
17524;SDS011;40431;52.198;9.902;2024-03-25T07:14:44;13.17;;;5.97;;
17524;SDS011;40431;52.198;9.902;2024-03-25T07:17:20;10.07;;;5.47;;
17524;SDS011;40431;52.198;9.902;2024-03-25T07:19:56;13.83;;;5.43;;
17524;SDS011;40431;52.198;9.902;2024-03-25T07:22:41;8.80;;;5.20;;
17524;SDS011;40431;52.198;9.902;2024-03-25T07:25:15;10.73;;;5.60;;
17524;SDS011;40431;52.198;9.902;2024-03-25T07:27:43;8.03;;;5.07;;
17524;SDS011;40431;52.198;9.902;2024-03-25T07:30:18;12.30;;;5.20;;
17524;SDS011;40431;52.198;9.902;2024-03-25T07:32:57;11.73;;;5.30;;
17524;SDS011;40431;52.198;9.902;2024-03-25T07:35:37;8.97;;;4.83;;
17524;SDS011;40431;52.198;9.902;2024-03-25T07:38:21;11.57;;;5.60;;
17524;SDS011;40431;52.198;9.902;2024-03-25T07:40:52;9.07;;;4.73;;
17524;SDS011;40431;52.198;9.902;2024-03-25T07:43:23;10.50;;;6.20;;
17524;SDS011;40431;52.198;9.902;2024-03-25T07:45:56;10.97;;;4.80;;
17524;SDS011;40431;52.198;9.902;2024-03-25T07:48:31;14.97;;;5.63;;
17524;SDS011;40431;52.198;9.902;2024-03-25T07:51:05;8.50;;;5.13;;
17524;SDS011;40431;52.198;9.902;2024-03-25T07:53:36;10.10;;;4.80;;
17524;SDS011;40431;52.198;9.902;2024-03-25T07:56:29;8.73;;;5.63;;
17524;SDS011;40431;52.198;9.902;2024-03-25T07:58:59;8.67;;;5.57;;
17524;SDS011;40431;52.198;9.902;2024-03-25T08:01:30;11.53;;;5.23;;
17524;SDS011;40431;52.198;9.902;2024-03-25T08:04:06;7.03;;;5.03;;
17524;SDS011;40431;52.198;9.902;2024-03-25T08:06:42;12.87;;;5.97;;
17524;SDS011;40431;52.198;9.902;2024-03-25T08:09:18;8.93;;;5.73;;
17524;SDS011;40431;52.198;9.902;2024-03-25T08:11:46;8.73;;;6.20;;
17524;SDS011;40431;52.198;9.902;2024-03-25T08:14:22;12.27;;;5.53;;
17524;SDS011;40431;52.198;9.902;2024-03-25T08:16:55;8.83;;;5.40;;
17524;SDS011;40431;52.198;9.902;2024-03-25T08:19:35;9.47;;;5.10;;
17524;SDS011;40431;52.198;9.902;2024-03-25T08:22:05;9.03;;;5.30;;
17524;SDS011;40431;52.198;9.902;2024-03-25T08:24:39;6.97;;;5.33;;
17524;SDS011;40431;52.198;9.902;2024-03-25T08:27:27;10.30;;;4.90;;
17524;SDS011;40431;52.198;9.902;2024-03-25T08:30:12;7.33;;;4.93;;
17524;SDS011;40431;52.198;9.902;2024-03-25T08:32:48;8.23;;;4.90;;
17524;SDS011;40431;52.198;9.902;2024-03-25T08:35:22;7.53;;;4.67;;
17524;SDS011;40431;52.198;9.902;2024-03-25T08:37:56;9.83;;;5.30;;
17524;SDS011;40431;52.198;9.902;2024-03-25T08:40:40;9.77;;;5.30;;
17524;SDS011;40431;52.198;9.902;2024-03-25T08:46:02;10.77;;;4.47;;
17524;SDS011;40431;52.198;9.902;2024-03-25T08:48:36;9.93;;;4.93;;
17524;SDS011;40431;52.198;9.902;2024-03-25T08:51:15;11.03;;;4.53;;
17524;SDS011;40431;52.198;9.902;2024-03-25T08:54:03;9.23;;;4.40;;
17524;SDS011;40431;52.198;9.902;2024-03-25T08:56:37;7.87;;;4.60;;
17524;SDS011;40431;52.198;9.902;2024-03-25T08:59:08;9.23;;;4.47;;
17524;SDS011;40431;52.198;9.902;2024-03-25T09:01:41;9.20;;;4.40;;
17524;SDS011;40431;52.198;9.902;2024-03-25T09:07:02;5.77;;;4.30;;
17524;SDS011;40431;52.198;9.902;2024-03-25T09:09:36;6.33;;;4.17;;
17524;SDS011;40431;52.198;9.902;2024-03-25T09:12:23;12.87;;;4.10;;
17524;SDS011;40431;52.198;9.902;2024-03-25T09:14:58;14.97;;;4.40;;
17524;SDS011;40431;52.198;9.902;2024-03-25T09:17:44;8.27;;;3.80;;
17524;SDS011;40431;52.198;9.902;2024-03-25T09:20:17;9.53;;;4.27;;
17524;SDS011;40431;52.198;9.902;2024-03-25T09:22:59;5.80;;;3.50;;
17524;SDS011;40431;52.198;9.902;2024-03-25T09:25:33;7.13;;;3.27;;
17524;SDS011;40431;52.198;9.902;2024-03-25T09:33:37;7.07;;;3.30;;
17524;SDS011;40431;52.198;9.902;2024-03-25T09:36:06;11.93;;;3.63;;
17524;SDS011;40431;52.198;9.902;2024-03-25T09:38:35;11.37;;;4.17;;
17524;SDS011;40431;52.198;9.902;2024-03-25T09:41:12;7.70;;;3.40;;
17524;SDS011;40431;52.198;9.902;2024-03-25T09:43:53;6.57;;;3.37;;
17524;SDS011;40431;52.198;9.902;2024-03-25T09:46:25;4.87;;;3.27;;
17524;SDS011;40431;52.198;9.902;2024-03-25T09:49:02;6.67;;;3.27;;
17524;SDS011;40431;52.198;9.902;2024-03-25T09:51:35;7.00;;;4.13;;
17524;SDS011;40431;52.198;9.902;2024-03-25T09:54:10;8.93;;;3.77;;
17524;SDS011;40431;52.198;9.902;2024-03-25T09:56:43;8.73;;;3.53;;
17524;SDS011;40431;52.198;9.902;2024-03-25T09:59:10;7.90;;;3.70;;
17524;SDS011;40431;52.198;9.902;2024-03-25T10:01:40;6.53;;;3.47;;
17524;SDS011;40431;52.198;9.902;2024-03-25T10:04:11;8.87;;;4.23;;
17524;SDS011;40431;52.198;9.902;2024-03-25T10:06:40;10.57;;;3.83;;
17524;SDS011;40431;52.198;9.902;2024-03-25T10:09:11;7.73;;;3.77;;
17524;SDS011;40431;52.198;9.902;2024-03-25T10:11:50;13.90;;;4.23;;
17524;SDS011;40431;52.198;9.902;2024-03-25T10:14:25;6.07;;;3.43;;
17524;SDS011;40431;52.198;9.902;2024-03-25T10:16:57;7.83;;;3.80;;
17524;SDS011;40431;52.198;9.902;2024-03-25T10:19:31;5.23;;;3.20;;
17524;SDS011;40431;52.198;9.902;2024-03-25T10:22:15;9.67;;;3.03;;
17524;SDS011;40431;52.198;9.902;2024-03-25T10:24:54;8.17;;;2.87;;
17524;SDS011;40431;52.198;9.902;2024-03-25T10:27:28;5.77;;;3.07;;
17524;SDS011;40431;52.198;9.902;2024-03-25T10:29:59;3.57;;;2.40;;
17524;SDS011;40431;52.198;9.902;2024-03-25T10:32:30;8.30;;;2.80;;
17524;SDS011;40431;52.198;9.902;2024-03-25T10:35:04;4.57;;;2.47;;
17524;SDS011;40431;52.198;9.902;2024-03-25T10:37:40;4.07;;;2.70;;
17524;SDS011;40431;52.198;9.902;2024-03-25T10:40:15;4.57;;;2.70;;
17524;SDS011;40431;52.198;9.902;2024-03-25T10:42:51;6.07;;;2.80;;
17524;SDS011;40431;52.198;9.902;2024-03-25T10:45:32;8.30;;;2.83;;
17524;SDS011;40431;52.198;9.902;2024-03-25T10:48:17;4.57;;;2.63;;
17524;SDS011;40431;52.198;9.902;2024-03-25T10:51:07;6.20;;;3.00;;
17524;SDS011;40431;52.198;9.902;2024-03-25T10:53:47;3.67;;;2.30;;
17524;SDS011;40431;52.198;9.902;2024-03-25T10:56:28;5.20;;;2.63;;
17524;SDS011;40431;52.198;9.902;2024-03-25T10:59:14;4.37;;;2.63;;
17524;SDS011;40431;52.198;9.902;2024-03-25T11:01:55;4.57;;;2.30;;
17524;SDS011;40431;52.198;9.902;2024-03-25T11:04:29;8.10;;;2.50;;
17524;SDS011;40431;52.198;9.902;2024-03-25T11:07:09;5.07;;;2.57;;
17524;SDS011;40431;52.198;9.902;2024-03-25T11:09:48;4.80;;;2.17;;
17524;SDS011;40431;52.198;9.902;2024-03-25T11:12:34;4.90;;;2.23;;
17524;SDS011;40431;52.198;9.902;2024-03-25T11:15:14;5.63;;;2.33;;
17524;SDS011;40431;52.198;9.902;2024-03-25T11:17:49;5.97;;;2.60;;
17524;SDS011;40431;52.198;9.902;2024-03-25T11:20:21;4.47;;;2.40;;
17524;SDS011;40431;52.198;9.902;2024-03-25T11:22:55;6.10;;;4.00;;
17524;SDS011;40431;52.198;9.902;2024-03-25T11:25:43;8.10;;;4.03;;
17524;SDS011;40431;52.198;9.902;2024-03-25T11:28:35;4.93;;;2.53;;
17524;SDS011;40431;52.198;9.902;2024-03-25T11:31:07;3.33;;;2.00;;
17524;SDS011;40431;52.198;9.902;2024-03-25T11:33:46;5.00;;;2.90;;
17524;SDS011;40431;52.198;9.902;2024-03-25T11:36:22;3.73;;;2.10;;
17524;SDS011;40431;52.198;9.902;2024-03-25T11:39:04;3.27;;;2.00;;
17524;SDS011;40431;52.198;9.902;2024-03-25T11:41:41;6.57;;;2.33;;
17524;SDS011;40431;52.198;9.902;2024-03-25T11:44:15;4.03;;;2.47;;
17524;SDS011;40431;52.198;9.902;2024-03-25T11:47:04;3.53;;;2.10;;
17524;SDS011;40431;52.198;9.902;2024-03-25T11:49:40;4.80;;;2.53;;
17524;SDS011;40431;52.198;9.902;2024-03-25T11:52:13;3.47;;;2.00;;
17524;SDS011;40431;52.198;9.902;2024-03-25T11:55:00;5.33;;;2.47;;
17524;SDS011;40431;52.198;9.902;2024-03-25T11:57:54;6.13;;;2.77;;
17524;SDS011;40431;52.198;9.902;2024-03-25T12:00:30;4.67;;;2.20;;
17524;SDS011;40431;52.198;9.902;2024-03-25T12:03:20;2.77;;;2.13;;
17524;SDS011;40431;52.198;9.902;2024-03-25T12:05:51;4.37;;;2.00;;
17524;SDS011;40431;52.198;9.902;2024-03-25T12:08:27;2.87;;;2.10;;
17524;SDS011;40431;52.198;9.902;2024-03-25T12:10:59;3.90;;;2.33;;
17524;SDS011;40431;52.198;9.902;2024-03-25T12:13:53;4.47;;;2.23;;
17524;SDS011;40431;52.198;9.902;2024-03-25T12:16:25;7.27;;;2.20;;
17524;SDS011;40431;52.198;9.902;2024-03-25T12:18:57;4.40;;;2.67;;
17524;SDS011;40431;52.198;9.902;2024-03-25T12:21:30;3.73;;;2.30;;
17524;SDS011;40431;52.198;9.902;2024-03-25T12:24:07;6.43;;;2.70;;
17524;SDS011;40431;52.198;9.902;2024-03-25T12:27:01;4.03;;;3.30;;
17524;SDS011;40431;52.198;9.902;2024-03-25T12:29:35;4.40;;;2.50;;
17524;SDS011;40431;52.198;9.902;2024-03-25T12:32:11;3.23;;;2.30;;
17524;SDS011;40431;52.198;9.902;2024-03-25T12:34:39;5.87;;;3.13;;
17524;SDS011;40431;52.198;9.902;2024-03-25T12:37:20;2.90;;;2.20;;
17524;SDS011;40431;52.198;9.902;2024-03-25T12:42:53;7.47;;;2.73;;
17524;SDS011;40431;52.198;9.902;2024-03-25T12:45:27;3.43;;;2.23;;
17524;SDS011;40431;52.198;9.902;2024-03-25T12:47:56;5.50;;;2.80;;
17524;SDS011;40431;52.198;9.902;2024-03-25T12:50:26;7.90;;;3.07;;
17524;SDS011;40431;52.198;9.902;2024-03-25T12:52:57;5.43;;;2.60;;
17524;SDS011;40431;52.198;9.902;2024-03-25T12:55:25;6.33;;;2.43;;
17524;SDS011;40431;52.198;9.902;2024-03-25T12:58:05;4.40;;;3.03;;
17524;SDS011;40431;52.198;9.902;2024-03-25T13:00:33;4.00;;;2.63;;
17524;SDS011;40431;52.198;9.902;2024-03-25T13:03:26;6.20;;;2.83;;
17524;SDS011;40431;52.198;9.902;2024-03-25T13:05:55;4.50;;;2.30;;
17524;SDS011;40431;52.198;9.902;2024-03-25T13:08:33;4.07;;;2.87;;
17524;SDS011;40431;52.198;9.902;2024-03-25T13:11:13;4.87;;;2.90;;
17524;SDS011;40431;52.198;9.902;2024-03-25T13:13:42;4.50;;;2.50;;
17524;SDS011;40431;52.198;9.902;2024-03-25T13:16:19;4.57;;;2.70;;
17524;SDS011;40431;52.198;9.902;2024-03-25T13:18:53;4.90;;;2.90;;
17524;SDS011;40431;52.198;9.902;2024-03-25T13:21:31;4.23;;;2.00;;
17524;SDS011;40431;52.198;9.902;2024-03-25T13:24:10;4.90;;;2.87;;
17524;SDS011;40431;52.198;9.902;2024-03-25T13:26:42;7.10;;;3.03;;
17524;SDS011;40431;52.198;9.902;2024-03-25T13:29:23;4.60;;;2.50;;
17524;SDS011;40431;52.198;9.902;2024-03-25T13:31:59;5.10;;;2.50;;
17524;SDS011;40431;52.198;9.902;2024-03-25T13:34:31;5.00;;;3.00;;
17524;SDS011;40431;52.198;9.902;2024-03-25T13:37:01;5.67;;;2.53;;
17524;SDS011;40431;52.198;9.902;2024-03-25T13:39:30;4.37;;;3.73;;
17524;SDS011;40431;52.198;9.902;2024-03-25T13:42:01;5.27;;;2.17;;
17524;SDS011;40431;52.198;9.902;2024-03-25T13:44:39;6.83;;;2.30;;
17524;SDS011;40431;52.198;9.902;2024-03-25T13:47:11;5.27;;;2.60;;
17524;SDS011;40431;52.198;9.902;2024-03-25T13:49:50;6.27;;;2.13;;
17524;SDS011;40431;52.198;9.902;2024-03-25T13:52:43;3.90;;;2.10;;
17524;SDS011;40431;52.198;9.902;2024-03-25T13:55:13;5.80;;;2.10;;
17524;SDS011;40431;52.198;9.902;2024-03-25T13:57:54;3.83;;;2.20;;
17524;SDS011;40431;52.198;9.902;2024-03-25T14:00:27;4.00;;;2.43;;
17524;SDS011;40431;52.198;9.902;2024-03-25T14:03:06;4.10;;;2.03;;
17524;SDS011;40431;52.198;9.902;2024-03-25T14:05:46;5.43;;;2.43;;
17524;SDS011;40431;52.198;9.902;2024-03-25T14:08:18;5.07;;;2.50;;
17524;SDS011;40431;52.198;9.902;2024-03-25T14:10:59;4.20;;;2.73;;
17524;SDS011;40431;52.198;9.902;2024-03-25T14:13:31;5.27;;;2.30;;
17524;SDS011;40431;52.198;9.902;2024-03-25T14:16:17;6.23;;;3.53;;
17524;SDS011;40431;52.198;9.902;2024-03-25T14:18:48;5.57;;;3.03;;
17524;SDS011;40431;52.198;9.902;2024-03-25T14:21:20;4.70;;;3.00;;
17524;SDS011;40431;52.198;9.902;2024-03-25T14:23:55;3.90;;;2.70;;
17524;SDS011;40431;52.198;9.902;2024-03-25T14:26:36;4.00;;;2.87;;
17524;SDS011;40431;52.198;9.902;2024-03-25T14:29:14;5.47;;;2.83;;
17524;SDS011;40431;52.198;9.902;2024-03-25T14:31:56;4.77;;;2.43;;
17524;SDS011;40431;52.198;9.902;2024-03-25T14:34:26;4.70;;;2.47;;
17524;SDS011;40431;52.198;9.902;2024-03-25T14:36:56;4.13;;;2.50;;
17524;SDS011;40431;52.198;9.902;2024-03-25T14:39:25;5.20;;;2.77;;
17524;SDS011;40431;52.198;9.902;2024-03-25T14:41:56;4.33;;;2.77;;
17524;SDS011;40431;52.198;9.902;2024-03-25T14:44:23;5.33;;;2.37;;
17524;SDS011;40431;52.198;9.902;2024-03-25T14:46:54;3.27;;;2.00;;
17524;SDS011;40431;52.198;9.902;2024-03-25T14:49:23;4.10;;;2.50;;
17524;SDS011;40431;52.198;9.902;2024-03-25T14:52:08;3.27;;;2.50;;
17524;SDS011;40431;52.198;9.902;2024-03-25T14:54:40;5.67;;;2.60;;
17524;SDS011;40431;52.198;9.902;2024-03-25T14:57:08;10.10;;;2.60;;
17524;SDS011;40431;52.198;9.902;2024-03-25T14:59:39;5.47;;;2.53;;
17524;SDS011;40431;52.198;9.902;2024-03-25T15:02:18;4.13;;;2.03;;
17524;SDS011;40431;52.198;9.902;2024-03-25T15:04:48;4.57;;;3.07;;
17524;SDS011;40431;52.198;9.902;2024-03-25T15:07:26;3.43;;;2.27;;
17524;SDS011;40431;52.198;9.902;2024-03-25T15:09:59;4.63;;;2.47;;
17524;SDS011;40431;52.198;9.902;2024-03-25T15:12:34;4.13;;;2.37;;
17524;SDS011;40431;52.198;9.902;2024-03-25T15:15:12;5.37;;;2.57;;
17524;SDS011;40431;52.198;9.902;2024-03-25T15:17:51;4.60;;;2.87;;
17524;SDS011;40431;52.198;9.902;2024-03-25T15:20:29;5.33;;;2.50;;
17524;SDS011;40431;52.198;9.902;2024-03-25T15:23:09;10.97;;;2.73;;
17524;SDS011;40431;52.198;9.902;2024-03-25T15:25:51;6.13;;;2.77;;
17524;SDS011;40431;52.198;9.902;2024-03-25T15:28:18;5.03;;;2.70;;
17524;SDS011;40431;52.198;9.902;2024-03-25T15:30:55;7.67;;;3.07;;
17524;SDS011;40431;52.198;9.902;2024-03-25T15:33:26;6.20;;;5.23;;
17524;SDS011;40431;52.198;9.902;2024-03-25T15:35:54;6.90;;;6.10;;
17524;SDS011;40431;52.198;9.902;2024-03-25T15:38:28;4.73;;;2.63;;
17524;SDS011;40431;52.198;9.902;2024-03-25T15:41:01;4.97;;;4.47;;
17524;SDS011;40431;52.198;9.902;2024-03-25T15:43:34;7.73;;;4.33;;
17524;SDS011;40431;52.198;9.902;2024-03-25T15:46:13;4.60;;;2.50;;
17524;SDS011;40431;52.198;9.902;2024-03-25T15:48:42;4.13;;;2.57;;
17524;SDS011;40431;52.198;9.902;2024-03-25T15:51:13;4.47;;;2.47;;